createdAt,value
2023-01-04T00:01:08.595Z,10.69
2023-01-04T00:03:35.520Z,10.92
2023-01-04T00:06:04.128Z,10.37
2023-01-04T00:08:30.772Z,10.86
2023-01-04T00:11:01.278Z,11.53
2023-01-04T00:13:27.999Z,12.59
2023-01-04T00:15:54.731Z,11.51
2023-01-04T00:18:21.351Z,11.20
2023-01-04T00:20:47.949Z,11.80
2023-01-04T00:23:14.631Z,11.97
2023-01-04T00:25:41.284Z,11.95
2023-01-04T00:28:07.925Z,11.20
2023-01-04T00:30:34.522Z,11.32
2023-01-04T00:33:01.162Z,13.62
2023-01-04T00:35:45.205Z,13.56
2023-01-04T00:38:12.659Z,10.66
2023-01-04T00:40:39.301Z,12.93
2023-01-04T00:43:05.981Z,12.58
2023-01-04T00:45:32.679Z,11.88
2023-01-04T00:47:59.416Z,11.05
2023-01-04T00:50:26.021Z,11.75
2023-01-04T00:52:52.619Z,11.51
2023-01-04T00:55:19.225Z,11.65
2023-01-04T00:57:45.889Z,11.31
2023-01-04T01:00:13.135Z,11.07
2023-01-04T01:02:39.989Z,11.26
2023-01-04T01:05:07.436Z,11.26
2023-01-04T01:07:34.076Z,10.96
2023-01-04T01:10:00.685Z,10.80
2023-01-04T01:12:27.279Z,11.50
2023-01-04T01:15:00.177Z,11.32
2023-01-04T01:17:27.155Z,11.64
2023-01-04T01:19:53.782Z,11.48
2023-01-04T01:22:20.371Z,11.36
2023-01-04T01:24:47.084Z,11.67
2023-01-04T01:27:13.739Z,11.29
2023-01-04T01:29:40.380Z,11.84
2023-01-04T01:32:07.088Z,11.54
2023-01-04T01:34:33.755Z,11.82
2023-01-04T01:37:00.372Z,11.98
2023-01-04T01:39:27.126Z,12.93
2023-01-04T01:41:53.782Z,12.19
2023-01-04T01:44:42.015Z,12.68
2023-01-04T01:47:19.097Z,12.62
2023-01-04T01:49:46.772Z,13.04
2023-01-04T01:52:18.392Z,13.04
2023-01-04T01:54:46.435Z,13.14
2023-01-04T01:57:15.615Z,12.95
2023-01-04T01:59:42.820Z,13.15
2023-01-04T02:02:09.681Z,13.53
2023-01-04T02:04:37.169Z,13.59
2023-01-04T02:07:03.857Z,13.47
2023-01-04T02:09:30.623Z,13.70
2023-01-04T02:11:57.255Z,13.39
2023-01-04T02:14:23.872Z,14.13
2023-01-04T02:16:56.765Z,15.20
2023-01-04T02:19:50.987Z,14.95
2023-01-04T02:22:47.842Z,14.74
2023-01-04T02:25:39.127Z,14.62
2023-01-04T02:28:33.594Z,14.89
2023-01-04T02:31:21.155Z,14.67
2023-01-04T02:34:21.719Z,15.79
2023-01-04T02:36:58.059Z,15.99
2023-01-04T02:39:42.850Z,16.13
2023-01-04T02:42:09.332Z,17.09
2023-01-04T02:44:42.727Z,17.71
2023-01-04T02:47:11.418Z,17.17
2023-01-04T02:49:38.137Z,17.94
2023-01-04T02:52:04.881Z,17.88
2023-01-04T02:54:31.515Z,18.15
2023-01-04T02:57:23.032Z,17.46
2023-01-04T03:00:01.599Z,17.91
2023-01-04T03:02:56.683Z,18.26
2023-01-04T03:05:38.970Z,17.58
2023-01-04T03:08:18.451Z,17.49
2023-01-04T03:11:03.976Z,16.83
2023-01-04T03:13:39.630Z,16.14
2023-01-04T03:16:13.167Z,16.74
2023-01-04T03:18:44.220Z,16.51
2023-01-04T03:21:11.644Z,16.62
2023-01-04T03:23:38.315Z,16.89
2023-01-04T03:26:10.188Z,16.42
2023-01-04T03:28:37.072Z,17.08
2023-01-04T03:31:12.469Z,17.31
2023-01-04T03:33:39.108Z,17.20
2023-01-04T03:36:17.614Z,16.93
2023-01-04T03:39:34.755Z,17.70
2023-01-04T03:42:07.616Z,17.21
2023-01-04T03:45:13.246Z,16.79
2023-01-04T03:48:10.056Z,16.85
2023-01-04T03:50:42.360Z,17.45
2023-01-04T03:53:08.967Z,17.19
2023-01-04T03:55:36.326Z,18.05
2023-01-04T03:58:02.982Z,17.40
2023-01-04T04:00:29.644Z,17.87
2023-01-04T04:02:57.240Z,17.77
2023-01-04T04:05:23.966Z,17.28
2023-01-04T04:07:50.600Z,17.20
2023-01-04T04:10:17.207Z,17.28
2023-01-04T04:12:43.899Z,16.34
2023-01-04T04:15:10.709Z,16.65
2023-01-04T04:17:37.311Z,17.65
2023-01-04T04:20:04.152Z,17.20
2023-01-04T04:22:30.740Z,16.47
2023-01-04T04:24:57.368Z,17.17
2023-01-04T04:27:23.978Z,17.56
2023-01-04T04:29:50.566Z,17.13
2023-01-04T04:32:17.245Z,16.82
2023-01-04T04:34:43.923Z,17.74
2023-01-04T04:37:10.603Z,17.91
2023-01-04T04:39:37.251Z,18.82
2023-01-04T04:42:03.909Z,18.19
2023-01-04T04:44:30.577Z,17.96
2023-01-04T04:46:57.251Z,17.59
2023-01-04T04:49:23.893Z,18.98
2023-01-04T04:51:50.522Z,18.97
2023-01-04T04:54:19.298Z,18.98
2023-01-04T04:56:46.245Z,18.77
2023-01-04T04:59:12.900Z,18.37
2023-01-04T05:01:39.643Z,18.93
2023-01-04T05:04:06.587Z,18.66
2023-01-04T05:06:33.796Z,18.61
2023-01-04T05:09:00.479Z,18.51
2023-01-04T05:11:27.106Z,17.50
2023-01-04T05:13:53.759Z,18.54
2023-01-04T05:16:20.410Z,17.39
2023-01-04T05:18:47.027Z,18.36
2023-01-04T05:21:17.024Z,17.97
2023-01-04T05:23:46.644Z,18.36
2023-01-04T05:26:13.412Z,18.04
2023-01-04T05:28:40.068Z,17.92
2023-01-04T05:31:06.781Z,18.65
2023-01-04T05:33:36.030Z,18.50
2023-01-04T05:36:03.318Z,18.33
2023-01-04T05:38:30.118Z,17.58
2023-01-04T05:40:56.867Z,17.85
2023-01-04T05:43:23.741Z,18.90
2023-01-04T05:45:54.469Z,17.78
2023-01-04T05:48:21.588Z,17.28
2023-01-04T05:50:48.327Z,18.09
2023-01-04T05:53:15.586Z,18.08
2023-01-04T05:55:42.255Z,18.23
2023-01-04T05:58:09.160Z,17.91
2023-01-04T06:00:35.809Z,17.83
2023-01-04T06:03:02.594Z,18.62
2023-01-04T06:05:29.303Z,17.73
2023-01-04T06:07:55.920Z,17.12
2023-01-04T06:10:22.700Z,17.21
2023-01-04T06:12:49.323Z,17.87
2023-01-04T06:15:15.994Z,18.47
2023-01-04T06:17:42.848Z,17.44
2023-01-04T06:20:09.973Z,17.66
2023-01-04T06:22:36.735Z,17.53
2023-01-04T06:25:03.958Z,18.02
2023-01-04T06:27:30.593Z,17.32
2023-01-04T06:29:57.196Z,16.95
2023-01-04T06:32:23.787Z,17.05
2023-01-04T06:34:50.440Z,17.25
2023-01-04T06:37:17.106Z,17.13
2023-01-04T06:39:43.867Z,16.82
2023-01-04T06:42:10.463Z,17.09
2023-01-04T06:44:37.134Z,17.51
2023-01-04T06:47:03.764Z,17.59
2023-01-04T06:49:30.433Z,17.57
2023-01-04T06:51:57.067Z,17.55
2023-01-04T06:54:23.689Z,17.73
2023-01-04T06:56:50.280Z,18.28
2023-01-04T06:59:16.943Z,18.96
2023-01-04T07:01:43.608Z,17.94
2023-01-04T07:04:10.424Z,17.82
2023-01-04T07:06:37.095Z,18.08
2023-01-04T07:09:03.703Z,17.03
2023-01-04T07:11:30.308Z,19.64
2023-01-04T07:13:56.954Z,19.06
2023-01-04T07:16:24.212Z,18.65
2023-01-04T07:18:50.901Z,19.16
2023-01-04T07:21:17.553Z,19.43
2023-01-04T07:23:44.239Z,20.80
2023-01-04T07:26:10.841Z,19.98
2023-01-04T07:28:37.426Z,18.75
2023-01-04T07:31:05.976Z,17.15
2023-01-04T07:33:32.670Z,16.88
2023-01-04T07:36:05.804Z,17.09
2023-01-04T07:38:33.827Z,16.64
2023-01-04T07:41:00.486Z,17.11
2023-01-04T07:43:28.444Z,17.31
2023-01-04T07:45:55.721Z,16.57
2023-01-04T07:48:22.410Z,17.62
2023-01-04T07:50:49.922Z,17.44
2023-01-04T07:53:16.604Z,18.70
2023-01-04T07:55:43.290Z,18.99
2023-01-04T07:58:09.950Z,19.20
2023-01-04T08:00:36.666Z,19.26
2023-01-04T08:03:03.584Z,19.43
2023-01-04T08:05:34.126Z,20.00
2023-01-04T08:08:00.851Z,19.59
2023-01-04T08:10:27.508Z,19.49
2023-01-04T08:12:54.154Z,19.85
2023-01-04T08:15:20.764Z,19.43
2023-01-04T08:17:47.368Z,19.92
2023-01-04T08:20:14.031Z,19.84
2023-01-04T08:22:40.714Z,20.96
2023-01-04T08:25:07.601Z,20.26
2023-01-04T08:27:34.271Z,20.10
2023-01-04T08:30:00.939Z,19.58
2023-01-04T08:32:27.601Z,20.24
2023-01-04T08:34:54.274Z,20.39
2023-01-04T08:37:21.002Z,20.96
2023-01-04T08:39:49.831Z,20.89
2023-01-04T08:42:24.712Z,21.65
2023-01-04T08:44:59.557Z,21.86
2023-01-04T08:47:29.809Z,21.81
2023-01-04T08:49:56.457Z,21.93
2023-01-04T08:52:23.174Z,20.93
2023-01-04T08:54:49.817Z,20.52
2023-01-04T08:57:17.217Z,21.01
2023-01-04T08:59:43.829Z,20.37
2023-01-04T09:02:30.734Z,20.61
2023-01-04T09:04:57.532Z,19.62
2023-01-04T09:07:24.231Z,19.58
2023-01-04T09:09:50.899Z,19.55
2023-01-04T09:12:17.518Z,18.80
2023-01-04T09:14:44.167Z,19.36
2023-01-04T09:17:10.826Z,18.26
2023-01-04T09:19:37.488Z,17.93
2023-01-04T09:22:04.213Z,18.90
2023-01-04T09:24:32.890Z,18.33
2023-01-04T09:26:59.621Z,18.16
2023-01-04T09:29:26.356Z,17.75
2023-01-04T09:31:54.123Z,17.82
2023-01-04T09:34:20.817Z,19.13
2023-01-04T09:36:47.503Z,25.96
2023-01-04T09:39:21.468Z,30.45
2023-01-04T09:41:57.453Z,22.74
2023-01-04T09:47:33.151Z,32.30
2023-01-04T09:50:06.111Z,28.96
2023-01-04T09:52:59.316Z,26.87
2023-01-04T09:55:39.152Z,16.82
2023-01-04T09:58:13.297Z,13.50
2023-01-04T10:01:03.400Z,13.53
2023-01-04T10:03:32.562Z,12.73
2023-01-04T10:05:59.265Z,12.95
2023-01-04T10:08:25.939Z,22.61
2023-01-04T10:11:30.162Z,22.82
2023-01-04T10:14:18.899Z,23.29
2023-01-04T10:17:13.384Z,26.49
2023-01-04T10:23:34.730Z,17.41
2023-01-04T10:26:15.122Z,14.69
2023-01-04T10:29:05.801Z,13.31
2023-01-04T10:31:50.323Z,12.51
2023-01-04T10:34:28.051Z,20.82
2023-01-04T10:37:11.467Z,16.43
2023-01-04T10:39:38.301Z,18.92
2023-01-04T10:42:37.936Z,12.59
2023-01-04T10:45:15.801Z,12.79
2023-01-04T10:48:04.210Z,13.17
2023-01-04T10:50:39.760Z,13.53
2023-01-04T10:53:20.954Z,13.99
2023-01-04T10:56:23.568Z,14.04
2023-01-04T10:58:45.204Z,20.14
2023-01-04T11:02:01.587Z,16.41
2023-01-04T11:04:33.174Z,14.84
2023-01-04T11:07:05.870Z,20.18
2023-01-04T11:09:40.405Z,26.52
2023-01-04T11:12:07.125Z,19.99
2023-01-04T11:14:37.468Z,14.03
2023-01-04T11:17:04.438Z,17.67
2023-01-04T11:19:31.123Z,20.81
2023-01-04T11:22:19.808Z,19.31
2023-01-04T11:25:15.975Z,18.29
2023-01-04T11:27:44.430Z,15.77
2023-01-04T11:30:22.876Z,17.61
2023-01-04T11:33:00.716Z,19.77
2023-01-04T11:36:03.172Z,17.18
2023-01-04T11:38:30.045Z,28.13
2023-01-04T11:40:57.529Z,21.99
2023-01-04T11:43:24.539Z,25.17
2023-01-04T11:46:17.257Z,20.45
2023-01-04T11:48:45.017Z,27.83
2023-01-04T11:51:26.666Z,18.42
2023-01-04T11:54:15.215Z,25.82
2023-01-04T11:57:00.935Z,20.62
2023-01-04T11:59:27.835Z,23.89
2023-01-04T12:02:42.737Z,21.42
2023-01-04T12:05:24.589Z,14.67
2023-01-04T12:07:55.992Z,16.10
2023-01-04T12:10:24.070Z,13.52
2023-01-04T12:12:50.717Z,15.51
2023-01-04T12:15:18.795Z,27.61
2023-01-04T12:18:19.313Z,15.93
2023-01-04T12:20:46.049Z,12.51
2023-01-04T12:23:12.704Z,13.60
2023-01-04T12:25:40.792Z,10.71
2023-01-04T12:28:20.939Z,12.86
2023-01-04T12:30:49.561Z,16.78
2023-01-04T12:33:34.327Z,18.07
2023-01-04T12:36:00.851Z,16.02
2023-01-04T12:38:52.211Z,19.37
2023-01-04T12:41:19.633Z,30.71
2023-01-04T12:43:47.153Z,11.36
2023-01-04T12:46:28.911Z,8.97
2023-01-04T12:48:55.594Z,9.89
2023-01-04T12:51:33.925Z,9.20
2023-01-04T12:54:04.593Z,8.62
2023-01-04T12:57:20.960Z,8.88
2023-01-04T13:00:04.549Z,9.35
2023-01-04T13:02:31.740Z,11.68
2023-01-04T13:05:54.841Z,10.98
2023-01-04T13:08:10.023Z,21.34
2023-01-04T13:10:37.290Z,30.37
2023-01-04T13:13:25.828Z,12.90
2023-01-04T13:16:10.051Z,27.61
2023-01-04T13:18:46.547Z,25.32
2023-01-04T13:21:19.990Z,22.96
2023-01-04T13:24:06.860Z,12.15
2023-01-04T13:26:43.973Z,11.33
2023-01-04T13:29:10.484Z,9.09
2023-01-04T13:31:50.251Z,29.77
2023-01-04T13:34:21.277Z,8.50
2023-01-04T13:37:37.463Z,15.66
2023-01-04T13:40:28.080Z,28.38
2023-01-04T13:43:16.432Z,34.22
2023-01-04T13:46:06.883Z,30.04
2023-01-04T13:48:38.488Z,21.30
2023-01-04T13:51:15.182Z,17.00
2023-01-04T13:53:41.790Z,11.45
2023-01-04T13:56:19.249Z,20.05
2023-01-04T13:58:46.008Z,22.72
2023-01-04T14:01:18.246Z,19.43
2023-01-04T14:03:49.290Z,15.37
2023-01-04T14:06:21.721Z,15.02
2023-01-04T14:08:57.733Z,8.08
2023-01-04T14:11:29.858Z,8.26
2023-01-04T14:13:56.540Z,16.07
2023-01-04T14:16:23.177Z,8.85
2023-01-04T14:18:49.828Z,11.61
2023-01-04T14:21:16.927Z,20.56
2023-01-04T14:23:43.524Z,11.42
2023-01-04T14:26:29.706Z,21.75
2023-01-04T14:28:56.375Z,17.87
2023-01-04T14:31:26.470Z,33.44
2023-01-04T14:33:53.230Z,29.28
2023-01-04T14:36:29.762Z,19.48
2023-01-04T14:39:05.427Z,15.32
2023-01-04T14:41:57.961Z,15.64
2023-01-04T14:44:26.157Z,11.20
2023-01-04T14:46:54.558Z,9.85
2023-01-04T14:49:21.366Z,9.48
2023-01-04T14:52:11.599Z,11.25
2023-01-04T14:54:38.210Z,12.04
2023-01-04T14:57:04.801Z,13.38
2023-01-04T14:59:31.522Z,11.97
2023-01-04T15:01:58.405Z,12.72
2023-01-04T15:04:25.202Z,13.16
2023-01-04T15:06:53.712Z,13.52
2023-01-04T15:09:20.321Z,11.71
2023-01-04T15:11:46.947Z,11.51
2023-01-04T15:14:13.546Z,12.19
2023-01-04T15:16:40.241Z,12.77
2023-01-04T15:19:06.903Z,12.80
2023-01-04T15:21:40.387Z,11.13
2023-01-04T15:24:07.869Z,11.11
2023-01-04T15:26:34.601Z,11.77
2023-01-04T15:29:01.242Z,12.78
2023-01-04T15:31:32.413Z,11.32
2023-01-04T15:34:01.679Z,11.59
2023-01-04T15:36:28.294Z,11.56
2023-01-04T15:38:54.934Z,10.28
2023-01-04T15:41:21.626Z,10.61
2023-01-04T15:43:48.232Z,10.66
2023-01-04T15:46:14.916Z,10.59
2023-01-04T15:48:41.586Z,10.21
2023-01-04T15:51:09.376Z,10.13
2023-01-04T15:53:36.016Z,10.33
2023-01-04T15:56:10.378Z,9.85
2023-01-04T15:58:37.066Z,9.76
2023-01-04T16:01:14.227Z,9.93
2023-01-04T16:03:40.969Z,9.63
2023-01-04T16:06:11.804Z,9.95
2023-01-04T16:08:38.651Z,9.60
2023-01-04T16:11:12.177Z,9.51
2023-01-04T16:13:38.844Z,9.38
2023-01-04T16:16:06.019Z,9.79
2023-01-04T16:18:33.013Z,9.88
2023-01-04T16:20:59.649Z,9.93
2023-01-04T16:23:26.872Z,10.31
2023-01-04T16:26:13.411Z,10.61
2023-01-04T16:28:40.285Z,9.86
2023-01-04T16:31:07.586Z,9.90
2023-01-04T16:33:34.686Z,10.26
2023-01-04T16:36:09.132Z,10.41
2023-01-04T16:38:36.431Z,9.94
2023-01-04T16:41:03.144Z,9.44
2023-01-04T16:43:29.916Z,9.24
2023-01-04T16:46:29.592Z,9.24
2023-01-04T16:48:57.830Z,9.35
2023-01-04T16:51:25.383Z,9.24
2023-01-04T16:53:52.267Z,9.07
2023-01-04T16:56:19.706Z,9.50
2023-01-04T16:58:46.378Z,8.59
2023-01-04T17:01:13.681Z,8.76
2023-01-04T17:03:41.213Z,8.94
2023-01-04T17:06:09.855Z,8.74
2023-01-04T17:08:36.544Z,8.35
2023-01-04T17:13:59.853Z,8.69
2023-01-04T17:16:31.116Z,8.32
2023-01-04T17:19:01.201Z,8.31
2023-01-04T17:21:36.105Z,7.95
2023-01-04T17:24:03.020Z,8.34
2023-01-04T17:26:30.373Z,8.20
2023-01-04T17:28:57.603Z,8.69
2023-01-04T17:31:26.220Z,7.50
2023-01-04T17:33:53.156Z,8.52
2023-01-04T17:36:20.025Z,8.59
2023-01-04T17:38:46.725Z,8.74
2023-01-04T17:41:15.647Z,7.44
2023-01-04T17:43:42.806Z,7.46
2023-01-04T17:46:11.571Z,7.74
2023-01-04T17:48:38.247Z,8.38
2023-01-04T17:51:23.262Z,8.72
2023-01-04T17:53:57.501Z,8.95
2023-01-04T17:56:24.305Z,9.53
2023-01-04T17:58:50.997Z,9.43
2023-01-04T18:01:22.300Z,9.26
2023-01-04T18:03:53.216Z,8.87
2023-01-04T18:06:25.230Z,9.22
2023-01-04T18:08:52.284Z,10.28
2023-01-04T18:11:19.118Z,9.29
2023-01-04T18:13:45.789Z,8.81
2023-01-04T18:16:25.254Z,9.20
2023-01-04T18:18:56.465Z,9.32
2023-01-04T18:21:28.804Z,8.98
2023-01-04T18:27:11.218Z,10.83
2023-01-04T18:29:30.546Z,10.48
2023-01-04T18:31:57.226Z,10.33
2023-01-04T18:34:23.864Z,10.13
2023-01-04T18:36:50.674Z,10.13
2023-01-04T18:39:17.295Z,10.05
2023-01-04T18:41:43.904Z,10.81
2023-01-04T18:44:32.330Z,10.65
2023-01-04T18:46:57.137Z,10.34
2023-01-04T18:49:23.747Z,10.75
2023-01-04T18:51:50.357Z,10.13
2023-01-04T18:54:17.033Z,9.99
2023-01-04T18:56:43.639Z,9.53
2023-01-04T18:59:10.222Z,9.77
2023-01-04T19:01:36.946Z,10.82
2023-01-04T19:04:03.691Z,11.01
2023-01-04T19:06:30.294Z,11.39
2023-01-04T19:09:01.482Z,12.45
2023-01-04T19:11:31.254Z,13.05
2023-01-04T19:13:57.980Z,12.79
2023-01-04T19:16:24.649Z,12.18
2023-01-04T19:18:51.312Z,11.94
2023-01-04T19:21:17.960Z,11.75
2023-01-04T19:23:44.622Z,11.76
2023-01-04T19:26:11.281Z,12.46
2023-01-04T19:28:37.930Z,11.90
2023-01-04T19:31:08.070Z,12.05
2023-01-04T19:33:34.940Z,11.59
2023-01-04T19:36:01.622Z,11.38
2023-01-04T19:38:28.226Z,11.59
2023-01-04T19:40:57.891Z,11.83
2023-01-04T19:43:24.519Z,11.48
2023-01-04T19:45:51.156Z,11.95
2023-01-04T19:48:17.876Z,12.42
2023-01-04T19:50:44.488Z,11.71
2023-01-04T19:53:11.222Z,11.68
2023-01-04T19:55:40.792Z,11.89
2023-01-04T19:58:07.475Z,11.18
2023-01-04T20:00:34.171Z,11.35
2023-01-04T20:03:00.990Z,13.54
2023-01-04T20:05:27.803Z,13.07
2023-01-04T20:07:54.439Z,13.91
2023-01-04T20:10:21.082Z,13.29
2023-01-04T20:12:47.775Z,13.54
2023-01-04T20:15:14.426Z,13.15
2023-01-04T20:17:41.127Z,13.30
2023-01-04T20:20:07.910Z,12.56
2023-01-04T20:22:34.598Z,12.01
2023-01-04T20:25:01.252Z,12.00
2023-01-04T20:27:27.857Z,13.16
2023-01-04T20:29:54.618Z,12.72
2023-01-04T20:32:21.250Z,10.19
2023-01-04T20:34:47.926Z,11.02
2023-01-04T20:37:14.649Z,10.87
2023-01-04T20:39:41.306Z,10.72
2023-01-04T20:42:07.921Z,10.28
2023-01-04T20:44:34.588Z,10.49
2023-01-04T20:47:01.282Z,9.60
2023-01-04T20:49:27.928Z,9.13
2023-01-04T20:51:54.536Z,9.15
2023-01-04T20:54:21.370Z,8.72
2023-01-04T20:56:48.039Z,8.96
2023-01-04T20:59:14.717Z,9.29
2023-01-04T21:01:41.471Z,8.85
2023-01-04T21:04:08.178Z,9.18
2023-01-04T21:06:34.855Z,9.29
2023-01-04T21:09:01.461Z,8.70
2023-01-04T21:11:28.132Z,8.58
2023-01-04T21:13:54.979Z,9.01
2023-01-04T21:16:21.692Z,8.09
2023-01-04T21:18:48.409Z,9.23
2023-01-04T21:21:16.344Z,8.85
2023-01-04T21:23:43.193Z,8.41
2023-01-04T21:26:13.198Z,8.94
2023-01-04T21:28:39.876Z,8.58
2023-01-04T21:31:20.488Z,9.38
2023-01-04T21:33:47.343Z,11.10
2023-01-04T21:36:21.364Z,11.71
2023-01-04T21:38:49.184Z,12.03
2023-01-04T21:41:15.895Z,10.81
2023-01-04T21:43:42.701Z,10.99
2023-01-04T21:46:13.333Z,11.27
2023-01-04T21:48:40.052Z,10.93
2023-01-04T21:51:06.778Z,11.87
2023-01-04T21:53:33.879Z,10.92
2023-01-04T21:56:08.609Z,11.00
2023-01-04T21:58:35.405Z,11.27
2023-01-04T22:01:02.081Z,11.92
2023-01-04T22:03:28.693Z,11.66
2023-01-04T22:06:00.763Z,11.57
2023-01-04T22:08:27.376Z,12.12
2023-01-04T22:10:54.365Z,12.11
2023-01-04T22:13:21.188Z,12.47
2023-01-04T22:15:47.892Z,12.76
2023-01-04T22:18:18.100Z,12.46
2023-01-04T22:20:44.779Z,12.48
2023-01-04T22:23:11.480Z,11.79
2023-01-04T22:25:38.147Z,11.17
2023-01-04T22:28:04.941Z,11.68
2023-01-04T22:30:31.774Z,12.37
2023-01-04T22:32:58.421Z,12.13
2023-01-04T22:35:25.140Z,13.11
2023-01-04T22:37:51.864Z,13.62
2023-01-04T22:40:18.524Z,12.61
2023-01-04T22:42:45.158Z,12.04
2023-01-04T22:45:13.513Z,11.51
2023-01-04T22:47:40.392Z,10.96
2023-01-04T22:50:07.363Z,10.73
2023-01-04T22:52:34.015Z,10.58
2023-01-04T22:55:00.713Z,10.50
2023-01-04T22:57:27.335Z,10.50
2023-01-04T22:59:53.989Z,10.28
2023-01-04T23:02:20.604Z,11.45
2023-01-04T23:04:47.198Z,10.89
2023-01-04T23:07:13.840Z,10.70
2023-01-04T23:09:40.520Z,10.64
2023-01-04T23:12:07.304Z,11.02
2023-01-04T23:14:33.969Z,10.57
2023-01-04T23:17:00.695Z,10.58
2023-01-04T23:19:27.419Z,10.92
2023-01-04T23:21:54.049Z,10.59
2023-01-04T23:24:20.710Z,10.81
2023-01-04T23:26:47.374Z,11.18
2023-01-04T23:29:14.061Z,10.68
2023-01-04T23:31:42.911Z,10.72
2023-01-04T23:34:10.172Z,10.60
2023-01-04T23:36:38.677Z,10.66
2023-01-04T23:39:07.726Z,11.08
2023-01-04T23:41:34.365Z,10.76
2023-01-04T23:44:01.052Z,10.78
2023-01-04T23:46:27.659Z,10.65
2023-01-04T23:48:54.693Z,10.48
2023-01-04T23:51:21.288Z,10.28
2023-01-04T23:53:47.942Z,10.05
2023-01-04T23:56:15.060Z,10.57
2023-01-04T23:58:41.798Z,10.59
